createdAt,value
2019-03-12T00:00:58.494Z,14.12
2019-03-12T00:03:28.164Z,14.19
2019-03-12T00:05:57.804Z,13.57
2019-03-12T00:08:27.408Z,13.51
2019-03-12T00:10:57.041Z,13.41
2019-03-12T00:13:26.698Z,13.18
2019-03-12T00:15:56.863Z,13.14
2019-03-12T00:18:28.405Z,13.32
2019-03-12T00:20:57.771Z,13.34
2019-03-12T00:23:27.381Z,13.22
2019-03-12T00:25:56.978Z,13.51
2019-03-12T00:28:26.590Z,13.13
2019-03-12T00:30:56.171Z,12.99
2019-03-12T00:33:25.797Z,12.83
2019-03-12T00:35:55.545Z,12.82
2019-03-12T00:38:25.125Z,12.50
2019-03-12T00:40:54.748Z,12.40
2019-03-12T00:43:24.347Z,12.35
2019-03-12T00:45:53.937Z,12.34
2019-03-12T00:48:23.596Z,12.19
2019-03-12T00:50:53.200Z,12.07
2019-03-12T00:53:22.787Z,11.89
2019-03-12T00:55:52.443Z,12.31
2019-03-12T00:58:22.113Z,12.02
2019-03-12T01:00:51.909Z,12.06
2019-03-12T01:03:21.535Z,12.24
2019-03-12T01:05:51.083Z,12.08
2019-03-12T01:08:20.711Z,11.87
2019-03-12T01:10:50.263Z,12.07
2019-03-12T01:13:20.181Z,11.73
2019-03-12T01:15:50.010Z,11.64
2019-03-12T01:18:19.573Z,11.84
2019-03-12T01:20:49.259Z,11.71
2019-03-12T01:23:18.869Z,11.52
2019-03-12T01:25:48.480Z,11.36
2019-03-12T01:28:18.111Z,11.53
2019-03-12T01:30:47.851Z,11.27
2019-03-12T01:33:17.491Z,11.27
2019-03-12T01:35:47.074Z,11.37
2019-03-12T01:38:16.693Z,11.38
2019-03-12T01:40:46.699Z,11.24
2019-03-12T01:43:16.351Z,11.28
2019-03-12T01:45:45.969Z,11.37
2019-03-12T01:48:15.655Z,11.17
2019-03-12T01:50:45.325Z,11.16
2019-03-12T01:53:14.940Z,11.16
2019-03-12T01:55:44.667Z,11.16
2019-03-12T01:58:14.773Z,10.84
2019-03-12T02:00:44.499Z,10.80
2019-03-12T02:03:14.134Z,10.74
2019-03-12T02:05:43.801Z,10.91
2019-03-12T02:08:13.432Z,10.59
2019-03-12T02:10:43.020Z,10.63
2019-03-12T02:13:12.737Z,10.53
2019-03-12T02:15:42.324Z,10.61
2019-03-12T02:18:11.882Z,10.58
2019-03-12T02:20:41.572Z,10.69
2019-03-12T02:23:11.252Z,10.56
2019-03-12T02:25:40.861Z,10.43
2019-03-12T02:28:10.467Z,10.22
2019-03-12T02:30:40.119Z,10.13
2019-03-12T02:33:09.964Z,10.32
2019-03-12T02:35:39.558Z,10.65
2019-03-12T02:38:09.213Z,10.35
2019-03-12T02:40:38.799Z,10.30
2019-03-12T02:43:08.653Z,10.46
2019-03-12T02:45:38.340Z,10.59
2019-03-12T02:48:07.932Z,10.34
2019-03-12T02:50:37.507Z,10.19
2019-03-12T02:53:07.111Z,10.14
2019-03-12T02:55:36.733Z,10.39
2019-03-12T02:58:06.438Z,10.13
2019-03-12T03:00:36.048Z,10.13
2019-03-12T03:03:05.702Z,9.97
2019-03-12T03:05:40.676Z,9.80
2019-03-12T03:08:10.651Z,9.81
2019-03-12T03:10:40.308Z,9.67
2019-03-12T03:13:10.026Z,9.86
2019-03-12T03:15:44.552Z,9.68
2019-03-12T03:18:14.144Z,9.81
2019-03-12T03:20:43.762Z,9.56
2019-03-12T03:23:13.364Z,9.53
2019-03-12T03:25:43.071Z,9.68
2019-03-12T03:28:12.721Z,9.44
2019-03-12T03:30:42.503Z,9.62
2019-03-12T03:33:12.032Z,9.53
2019-03-12T03:35:41.705Z,9.41
2019-03-12T03:38:11.332Z,9.57
2019-03-12T03:40:40.943Z,9.39
2019-03-12T03:43:10.588Z,9.51
2019-03-12T03:45:40.155Z,9.48
2019-03-12T03:48:09.837Z,9.43
2019-03-12T03:50:39.397Z,9.41
2019-03-12T03:53:09.045Z,9.64
2019-03-12T03:55:38.632Z,9.58
2019-03-12T03:58:08.233Z,9.44
2019-03-12T04:00:37.932Z,9.34
2019-03-12T04:03:07.573Z,9.54
2019-03-12T04:05:37.159Z,9.09
2019-03-12T04:08:06.853Z,9.01
2019-03-12T04:10:36.437Z,9.16
2019-03-12T04:13:06.084Z,8.79
2019-03-12T04:15:35.755Z,8.75
2019-03-12T04:18:05.374Z,9.20
2019-03-12T04:20:34.990Z,8.79
2019-03-12T04:23:04.592Z,7.86
2019-03-12T04:25:34.273Z,8.75
2019-03-12T04:28:03.876Z,8.74
2019-03-12T04:30:33.479Z,8.69
2019-03-12T04:33:03.181Z,8.84
2019-03-12T04:35:32.793Z,8.87
2019-03-12T04:38:02.378Z,8.69
2019-03-12T04:40:31.987Z,8.77
2019-03-12T04:43:01.576Z,8.75
2019-03-12T04:45:31.298Z,8.78
2019-03-12T04:48:00.895Z,8.80
2019-03-12T04:50:30.467Z,8.69
2019-03-12T04:53:00.066Z,8.82
2019-03-12T04:55:29.712Z,8.70
2019-03-12T04:57:59.443Z,8.78
2019-03-12T05:00:28.992Z,8.69
2019-03-12T05:02:58.720Z,8.79
2019-03-12T05:05:28.353Z,8.70
2019-03-12T05:07:57.968Z,8.59
2019-03-12T05:10:27.603Z,8.63
2019-03-12T05:12:57.215Z,8.81
2019-03-12T05:15:26.817Z,8.63
2019-03-12T05:17:56.403Z,8.84
2019-03-12T05:20:25.972Z,8.53
2019-03-12T05:22:55.628Z,8.60
2019-03-12T05:25:25.245Z,8.08
2019-03-12T05:27:54.850Z,8.39
2019-03-12T05:30:24.544Z,8.48
2019-03-12T05:32:54.179Z,8.76
2019-03-12T05:35:23.804Z,8.84
2019-03-12T05:37:53.419Z,8.88
2019-03-12T05:40:22.993Z,8.45
2019-03-12T05:42:52.586Z,8.40
2019-03-12T05:45:22.300Z,8.24
2019-03-12T05:47:51.984Z,7.76
2019-03-12T05:50:21.640Z,7.78
2019-03-12T05:52:51.290Z,7.90
2019-03-12T05:55:20.980Z,7.77
2019-03-12T05:57:50.555Z,7.74
2019-03-12T06:00:21.356Z,7.74
2019-03-12T06:02:51.927Z,7.69
2019-03-12T06:05:23.395Z,7.74
2019-03-12T06:07:55.520Z,7.93
2019-03-12T06:10:24.453Z,7.83
2019-03-12T06:12:54.116Z,7.82
2019-03-12T06:15:23.709Z,8.10
2019-03-12T06:17:53.276Z,7.91
2019-03-12T06:20:22.927Z,7.84
2019-03-12T06:22:52.500Z,7.87
2019-03-12T06:25:22.139Z,7.95
2019-03-12T06:27:51.743Z,7.66
2019-03-12T06:30:21.470Z,7.73
2019-03-12T06:32:57.812Z,7.57
2019-03-12T06:35:40.794Z,7.32
2019-03-12T06:38:26.373Z,7.20
2019-03-12T06:41:00.871Z,7.29
2019-03-12T06:44:01.573Z,7.25
2019-03-12T06:46:59.050Z,7.08
2019-03-12T06:49:37.998Z,7.21
2019-03-12T06:52:44.817Z,7.28
2019-03-12T06:55:51.310Z,7.34
2019-03-12T06:58:36.177Z,7.34
2019-03-12T07:01:25.242Z,7.25
2019-03-12T07:04:09.529Z,7.13
2019-03-12T07:06:49.946Z,7.15
2019-03-12T07:09:41.240Z,7.20
2019-03-12T07:12:16.419Z,7.27
2019-03-12T07:15:14.024Z,7.39
2019-03-12T07:18:17.681Z,7.32
2019-03-12T07:21:10.590Z,7.17
2019-03-12T07:23:57.864Z,7.22
2019-03-12T07:26:49.791Z,7.28
2019-03-12T07:29:35.620Z,7.18
2019-03-12T07:32:30.278Z,7.24
2019-03-12T07:35:18.776Z,7.37
2019-03-12T07:37:58.505Z,7.45
2019-03-12T07:40:46.115Z,7.46
2019-03-12T07:43:40.542Z,7.79
2019-03-12T07:46:25.595Z,7.80
2019-03-12T07:49:14.100Z,7.89
2019-03-12T07:51:51.089Z,7.64
2019-03-12T07:54:32.157Z,7.71
2019-03-12T07:57:26.825Z,7.70
2019-03-12T08:00:21.572Z,7.74
2019-03-12T08:03:13.052Z,7.81
2019-03-12T08:05:55.684Z,7.75
2019-03-12T08:08:40.096Z,7.73
2019-03-12T08:11:28.599Z,7.87
2019-03-12T08:14:15.966Z,7.78
2019-03-12T08:17:10.304Z,7.91
2019-03-12T08:20:11.037Z,7.82
2019-03-12T08:22:45.719Z,7.96
2019-03-12T08:25:46.667Z,8.14
2019-03-12T08:28:39.329Z,8.06
2019-03-12T08:31:34.076Z,8.21
2019-03-12T08:34:17.805Z,8.13
2019-03-12T08:37:03.133Z,8.27
2019-03-12T08:39:39.762Z,8.07
2019-03-12T08:42:37.534Z,8.00
2019-03-12T08:45:26.468Z,8.21
2019-03-12T08:48:08.398Z,8.27
2019-03-12T08:50:56.926Z,8.30
2019-03-12T08:53:48.176Z,8.16
2019-03-12T08:56:43.557Z,8.40
2019-03-12T08:59:38.153Z,8.43
2019-03-12T09:02:33.109Z,8.26
2019-03-12T09:05:20.490Z,8.32
2019-03-12T09:08:09.003Z,8.19
2019-03-12T09:11:03.723Z,8.45
2019-03-12T09:14:05.391Z,8.50
2019-03-12T09:16:56.825Z,8.75
2019-03-12T09:19:45.341Z,8.91
2019-03-12T09:22:27.363Z,8.90
2019-03-12T09:25:14.385Z,8.90
2019-03-12T09:28:30.452Z,8.98
2019-03-12T09:31:25.047Z,8.96
2019-03-12T09:34:16.568Z,9.11
2019-03-12T09:37:05.060Z,8.85
2019-03-12T09:39:52.219Z,8.82
2019-03-12T09:42:50.062Z,8.80
2019-03-12T09:45:32.107Z,8.91
2019-03-12T09:48:08.836Z,9.22
2019-03-12T09:50:49.589Z,9.00
2019-03-12T09:53:41.309Z,9.14
2019-03-12T09:56:21.308Z,9.25
2019-03-12T09:59:18.966Z,9.14
2019-03-12T10:02:01.580Z,9.09
2019-03-12T10:04:55.929Z,8.88
2019-03-12T10:07:35.897Z,8.91
2019-03-12T10:10:17.936Z,8.81
2019-03-12T10:13:14.641Z,8.54
2019-03-12T10:15:51.975Z,8.68
2019-03-12T10:18:35.838Z,8.76
2019-03-12T10:21:24.378Z,8.98
2019-03-12T10:24:15.690Z,8.97
2019-03-12T10:26:50.014Z,8.99
2019-03-12T10:29:41.222Z,8.97
2019-03-12T10:32:19.064Z,9.26
2019-03-12T10:35:13.216Z,8.59
2019-03-12T10:37:55.568Z,8.84
2019-03-12T10:40:51.909Z,9.00
2019-03-12T10:43:26.845Z,9.14
2019-03-12T10:46:13.975Z,9.15
2019-03-12T10:48:43.966Z,9.28
2019-03-12T10:51:13.583Z,9.23
2019-03-12T10:53:43.265Z,9.22
2019-03-12T10:56:12.893Z,9.14
2019-03-12T10:58:42.505Z,9.21
2019-03-12T11:01:12.382Z,9.20
2019-03-12T11:03:42.051Z,9.19
2019-03-12T11:06:11.747Z,9.16
2019-03-12T11:08:41.386Z,9.17
2019-03-12T11:11:11.018Z,9.15
2019-03-12T11:13:40.799Z,9.27
2019-03-12T11:16:10.434Z,9.33
2019-03-12T11:18:40.063Z,9.40
2019-03-12T11:21:09.798Z,9.36
2019-03-12T11:23:39.461Z,9.28
2019-03-12T11:26:09.136Z,9.10
2019-03-12T11:28:38.749Z,9.12
2019-03-12T11:31:08.418Z,8.89
2019-03-12T11:33:38.036Z,8.99
2019-03-12T11:36:07.766Z,8.91
2019-03-12T11:38:37.544Z,8.76
2019-03-12T11:41:07.197Z,8.96
2019-03-12T11:43:36.823Z,8.92
2019-03-12T11:46:06.772Z,8.81
2019-03-12T11:48:36.482Z,8.72
2019-03-12T11:51:06.423Z,9.09
2019-03-12T11:53:36.300Z,9.04
2019-03-12T11:56:05.918Z,9.26
2019-03-12T11:58:35.608Z,9.07
2019-03-12T12:01:07.692Z,8.96
2019-03-12T12:03:37.338Z,8.72
2019-03-12T12:06:07.056Z,8.48
2019-03-12T12:08:36.721Z,8.39
2019-03-12T12:11:06.463Z,8.60
2019-03-12T12:13:36.352Z,8.72
2019-03-12T12:16:06.213Z,8.59
2019-03-12T12:18:35.824Z,8.78
2019-03-12T12:21:05.499Z,8.75
2019-03-12T12:23:35.146Z,9.06
2019-03-12T12:26:04.819Z,9.00
2019-03-12T12:28:34.468Z,9.14
2019-03-12T12:31:04.111Z,9.30
2019-03-12T12:33:33.826Z,9.46
2019-03-12T12:36:03.651Z,9.72
2019-03-12T12:38:34.085Z,9.55
2019-03-12T12:41:03.807Z,9.31
2019-03-12T12:43:33.536Z,9.09
2019-03-12T12:46:03.189Z,9.21
2019-03-12T12:48:32.807Z,9.10
2019-03-12T12:51:03.809Z,9.26
2019-03-12T12:53:33.721Z,9.15
2019-03-12T12:56:03.345Z,9.43
2019-03-12T12:58:32.969Z,9.22
2019-03-12T13:01:02.625Z,10.03
2019-03-12T13:03:32.274Z,9.44
2019-03-12T13:06:01.951Z,9.49
2019-03-12T13:08:31.578Z,9.70
2019-03-12T13:11:01.212Z,9.81
2019-03-12T13:13:30.970Z,9.52
2019-03-12T13:16:00.815Z,9.71
2019-03-12T13:18:30.485Z,9.53
2019-03-12T13:21:00.160Z,9.42
2019-03-12T13:23:29.769Z,9.42
2019-03-12T13:25:59.484Z,10.14
2019-03-12T13:28:29.115Z,10.40
2019-03-12T13:30:58.745Z,10.45
2019-03-12T13:33:29.475Z,9.99
2019-03-12T13:35:59.194Z,9.83
2019-03-12T13:38:28.820Z,9.54
2019-03-12T13:41:02.908Z,9.64
2019-03-12T13:43:30.065Z,9.44
2019-03-12T13:45:59.768Z,9.27
2019-03-12T13:48:29.682Z,9.27
2019-03-12T13:50:59.327Z,9.31
2019-03-12T13:53:29.261Z,8.93
2019-03-12T13:55:58.950Z,9.03
2019-03-12T13:58:28.566Z,8.75
2019-03-12T14:00:58.353Z,8.91
2019-03-12T14:03:27.998Z,8.94
2019-03-12T14:05:57.629Z,9.01
2019-03-12T14:08:27.275Z,9.16
2019-03-12T14:10:57.123Z,9.15
2019-03-12T14:13:26.851Z,8.99
2019-03-12T14:15:56.703Z,8.89
2019-03-12T14:18:26.339Z,8.91
2019-03-12T14:21:02.372Z,8.86
2019-03-12T14:23:40.443Z,8.76
2019-03-12T14:26:10.368Z,8.81
2019-03-12T14:28:40.108Z,8.68
2019-03-12T14:31:09.847Z,8.55
2019-03-12T14:33:39.691Z,8.70
2019-03-12T14:36:09.436Z,8.65
2019-03-12T14:38:39.239Z,8.64
2019-03-12T14:41:08.896Z,8.40
2019-03-12T14:43:38.658Z,8.35
2019-03-12T14:46:08.417Z,8.29
2019-03-12T14:48:45.692Z,8.16
2019-03-12T14:51:22.313Z,8.06
2019-03-12T14:53:53.195Z,7.94
2019-03-12T14:56:24.733Z,7.90
2019-03-12T14:58:54.443Z,7.73
2019-03-12T15:01:24.186Z,7.68
2019-03-12T15:03:53.934Z,7.71
2019-03-12T15:06:23.706Z,7.63
2019-03-12T15:08:53.350Z,7.29
2019-03-12T15:11:23.004Z,7.35
2019-03-12T15:13:52.698Z,7.55
2019-03-12T15:16:22.354Z,7.79
2019-03-12T15:18:52.318Z,7.82
2019-03-12T15:21:21.952Z,8.01
2019-03-12T15:23:51.609Z,8.09
2019-03-12T15:26:21.301Z,8.26
2019-03-12T15:28:50.944Z,8.20
2019-03-12T15:31:20.688Z,8.07
2019-03-12T15:33:50.355Z,8.06
2019-03-12T15:36:19.998Z,7.76
2019-03-12T15:38:49.721Z,7.98
2019-03-12T15:41:19.375Z,8.16
2019-03-12T15:43:48.999Z,7.88
2019-03-12T15:46:18.643Z,7.85
2019-03-12T15:48:48.280Z,7.91
2019-03-12T15:51:17.970Z,8.15
2019-03-12T15:53:47.608Z,8.04
2019-03-12T15:56:17.248Z,8.06
2019-03-12T15:58:46.918Z,7.89
2019-03-12T16:01:16.685Z,7.90
2019-03-12T16:03:46.511Z,7.85
2019-03-12T16:06:16.182Z,7.96
2019-03-12T16:08:45.836Z,7.97
2019-03-12T16:11:15.522Z,8.09
2019-03-12T16:13:45.166Z,8.04
2019-03-12T16:16:14.793Z,7.92
2019-03-12T16:18:44.463Z,7.77
2019-03-12T16:21:14.113Z,7.82
2019-03-12T16:23:43.833Z,7.86
2019-03-12T16:26:13.478Z,7.87
2019-03-12T16:28:43.132Z,7.75
2019-03-12T16:31:12.810Z,7.46
2019-03-12T16:33:42.454Z,7.32
2019-03-12T16:36:12.154Z,7.21
2019-03-12T16:38:41.821Z,7.30
2019-03-12T16:41:11.467Z,7.47
2019-03-12T16:43:41.159Z,7.53
2019-03-12T16:46:10.792Z,7.50
2019-03-12T16:48:40.479Z,7.54
2019-03-12T16:51:10.168Z,7.48
2019-03-12T16:53:41.134Z,7.55
2019-03-12T16:56:10.785Z,7.75
2019-03-12T16:58:41.729Z,7.97
2019-03-12T17:01:11.493Z,7.92
2019-03-12T17:03:41.294Z,8.00
2019-03-12T17:06:10.935Z,8.03
2019-03-12T17:08:40.533Z,8.10
2019-03-12T17:11:10.110Z,8.15
2019-03-12T17:13:40.087Z,8.14
2019-03-12T17:16:10.772Z,8.04
2019-03-12T17:18:40.407Z,7.90
2019-03-12T17:21:10.047Z,7.95
2019-03-12T17:23:39.716Z,7.86
2019-03-12T17:26:09.352Z,7.97
2019-03-12T17:28:39.058Z,8.01
2019-03-12T17:31:08.707Z,7.77
2019-03-12T17:33:38.345Z,7.72
2019-03-12T17:36:08.045Z,7.67
2019-03-12T17:38:46.565Z,7.78
2019-03-12T17:41:09.053Z,7.08
2019-03-12T17:43:38.717Z,8.15
2019-03-12T17:46:08.347Z,8.15
2019-03-12T17:48:38.037Z,8.21
2019-03-12T17:51:07.703Z,8.15
2019-03-12T17:53:37.336Z,8.23
2019-03-12T17:56:07.145Z,8.13
2019-03-12T17:58:36.798Z,7.77
2019-03-12T18:01:06.472Z,7.61
2019-03-12T18:03:36.167Z,7.66
2019-03-12T18:06:05.939Z,7.88
2019-03-12T18:08:35.660Z,7.89
2019-03-12T18:11:05.417Z,7.92
2019-03-12T18:13:37.908Z,8.10
2019-03-12T18:16:07.571Z,8.23
2019-03-12T18:18:37.217Z,8.24
2019-03-12T18:21:06.917Z,8.27
2019-03-12T18:23:36.592Z,8.30
2019-03-12T18:26:08.287Z,8.15
2019-03-12T18:28:37.939Z,8.08
2019-03-12T18:31:07.574Z,8.06
2019-03-12T18:33:37.279Z,8.06
2019-03-12T18:36:07.014Z,7.89
2019-03-12T18:38:36.679Z,7.96
2019-03-12T18:41:06.786Z,7.85
2019-03-12T18:43:36.417Z,7.75
2019-03-12T18:46:06.121Z,7.64
2019-03-12T18:48:35.744Z,7.59
2019-03-12T18:51:05.580Z,7.69
2019-03-12T18:53:37.457Z,7.68
2019-03-12T18:56:08.637Z,7.61
2019-03-12T18:58:39.413Z,7.63
2019-03-12T19:01:13.880Z,7.62
2019-03-12T19:03:43.607Z,7.56
2019-03-12T19:06:13.284Z,7.51
2019-03-12T19:08:48.101Z,7.40
2019-03-12T19:11:14.454Z,7.25
2019-03-12T19:13:44.870Z,6.88
2019-03-12T19:16:14.727Z,6.99
2019-03-12T19:18:44.468Z,6.94
2019-03-12T19:21:14.252Z,6.85
2019-03-12T19:23:43.978Z,6.71
2019-03-12T19:26:15.058Z,6.91
2019-03-12T19:28:44.939Z,6.95
2019-03-12T19:31:33.439Z,7.20
2019-03-12T19:34:11.627Z,7.20
2019-03-12T19:36:41.290Z,7.34
2019-03-12T19:39:13.083Z,7.34
2019-03-12T19:41:42.732Z,7.28
2019-03-12T19:44:12.527Z,7.41
2019-03-12T19:46:42.261Z,7.39
2019-03-12T19:49:13.222Z,7.44
2019-03-12T19:51:42.860Z,7.49
2019-03-12T19:54:12.669Z,7.58
2019-03-12T19:56:42.850Z,7.74
2019-03-12T19:59:12.520Z,7.85
2019-03-12T20:01:44.651Z,7.85
2019-03-12T20:04:14.575Z,7.76
2019-03-12T20:06:44.422Z,7.88
2019-03-12T20:09:21.605Z,8.13
2019-03-12T20:12:34.148Z,8.20
2019-03-12T20:15:30.604Z,8.06
2019-03-12T20:18:37.104Z,8.08
2019-03-12T20:21:46.873Z,8.28
2019-03-12T20:25:09.823Z,8.20
2019-03-12T20:28:27.073Z,8.17
2019-03-12T20:31:31.565Z,8.47
2019-03-12T20:34:37.469Z,8.14
2019-03-12T20:37:55.900Z,8.13
2019-03-12T20:41:05.400Z,7.83
2019-03-12T20:44:14.840Z,7.94
2019-03-12T20:47:43.276Z,7.99
2019-03-12T20:50:51.679Z,7.97
2019-03-12T20:53:58.222Z,8.06
2019-03-12T20:57:10.168Z,8.13
2019-03-12T21:00:20.872Z,7.93
2019-03-12T21:03:37.303Z,7.99
2019-03-12T21:06:44.859Z,7.52
2019-03-12T21:09:55.224Z,7.35
2019-03-12T21:13:10.961Z,7.46
2019-03-12T21:16:00.003Z,7.15
2019-03-12T21:19:22.330Z,7.15
2019-03-12T21:22:22.517Z,7.26
2019-03-12T21:25:27.714Z,7.20
2019-03-12T21:28:38.186Z,7.48
2019-03-12T21:31:07.969Z,7.74
2019-03-12T21:33:37.609Z,7.59
2019-03-12T21:36:08.311Z,7.91
2019-03-12T21:38:38.264Z,7.79
2019-03-12T21:41:07.943Z,8.03
2019-03-12T21:43:37.626Z,8.03
2019-03-12T21:46:07.350Z,8.14
2019-03-12T21:48:36.981Z,8.32
2019-03-12T21:51:06.760Z,8.31
2019-03-12T21:53:36.402Z,8.37
2019-03-12T21:56:06.080Z,8.16
2019-03-12T21:58:35.707Z,8.10
2019-03-12T22:01:05.508Z,8.23
2019-03-12T22:03:35.204Z,8.17
2019-03-12T22:06:04.834Z,7.72
2019-03-12T22:08:34.527Z,7.71
2019-03-12T22:11:04.252Z,7.72
2019-03-12T22:13:33.894Z,7.62
2019-03-12T22:16:03.534Z,7.74
2019-03-12T22:18:33.181Z,7.90
2019-03-12T22:21:02.825Z,7.71
2019-03-12T22:23:41.946Z,7.93
2019-03-12T22:26:11.568Z,7.66
2019-03-12T22:28:41.195Z,7.84
2019-03-12T22:31:10.926Z,7.87
2019-03-12T22:33:40.552Z,7.80
2019-03-12T22:36:10.250Z,7.79
2019-03-12T22:38:39.883Z,7.89
2019-03-12T22:41:09.508Z,7.99
2019-03-12T22:43:39.195Z,7.80
2019-03-12T22:46:08.805Z,7.87
2019-03-12T22:48:38.440Z,7.96
2019-03-12T22:51:08.104Z,7.92
2019-03-12T22:53:37.733Z,7.89
2019-03-12T22:56:07.435Z,7.94
2019-03-12T22:58:37.087Z,8.00
2019-03-12T23:01:07.839Z,7.93
2019-03-12T23:03:37.513Z,8.22
2019-03-12T23:06:07.138Z,8.25
2019-03-12T23:08:36.781Z,8.36
2019-03-12T23:11:06.515Z,8.16
2019-03-12T23:13:36.147Z,8.23
2019-03-12T23:16:06.208Z,8.34
2019-03-12T23:18:35.841Z,8.25
2019-03-12T23:21:05.474Z,8.32
2019-03-12T23:23:35.096Z,8.05
2019-03-12T23:26:04.838Z,8.30
2019-03-12T23:28:34.483Z,8.14
2019-03-12T23:31:04.290Z,8.33
2019-03-12T23:33:33.921Z,8.35
2019-03-12T23:36:03.665Z,8.34
2019-03-12T23:38:33.302Z,8.38
2019-03-12T23:41:03.096Z,8.23
2019-03-12T23:43:32.840Z,8.27
2019-03-12T23:46:02.486Z,8.33
2019-03-12T23:48:32.124Z,8.45
2019-03-12T23:51:01.771Z,8.48
2019-03-12T23:53:31.450Z,8.40
2019-03-12T23:56:01.280Z,8.43
2019-03-12T23:58:32.587Z,8.43
